sensor_id;sensor_type;location;lat;lon;timestamp;pressure;altitude;pressure_sealevel;temperature;humidity
29121;BME280;16191;49.548;8.658;2023-04-26T00:00:29;100540.97;;;6.38;100.00
29121;BME280;16191;49.548;8.658;2023-04-26T00:02:57;100537.53;;;6.36;100.00
29121;BME280;16191;49.548;8.658;2023-04-26T00:05:25;100544.59;;;6.28;100.00
29121;BME280;16191;49.548;8.658;2023-04-26T00:07:52;100541.28;;;6.22;100.00
29121;BME280;16191;49.548;8.658;2023-04-26T00:10:19;100536.22;;;6.14;100.00
29121;BME280;16191;49.548;8.658;2023-04-26T00:12:46;100539.81;;;6.07;100.00
29121;BME280;16191;49.548;8.658;2023-04-26T00:15:13;100538.19;;;6.03;100.00
29121;BME280;16191;49.548;8.658;2023-04-26T00:17:39;100540.78;;;6.01;100.00
29121;BME280;16191;49.548;8.658;2023-04-26T00:20:06;100538.25;;;5.98;100.00
29121;BME280;16191;49.548;8.658;2023-04-26T00:22:36;100541.84;;;5.88;100.00
29121;BME280;16191;49.548;8.658;2023-04-26T00:25:02;100544.59;;;5.79;100.00
29121;BME280;16191;49.548;8.658;2023-04-26T00:27:29;100542.88;;;5.78;100.00
29121;BME280;16191;49.548;8.658;2023-04-26T00:29:56;100548.03;;;5.79;100.00
29121;BME280;16191;49.548;8.658;2023-04-26T00:32:23;100548.16;;;5.72;100.00
29121;BME280;16191;49.548;8.658;2023-04-26T00:34:49;100557.81;;;5.62;100.00
29121;BME280;16191;49.548;8.658;2023-04-26T00:37:16;100548.34;;;5.61;100.00
29121;BME280;16191;49.548;8.658;2023-04-26T00:39:42;100547.53;;;5.58;100.00
29121;BME280;16191;49.548;8.658;2023-04-26T00:42:09;100542.44;;;5.51;100.00
29121;BME280;16191;49.548;8.658;2023-04-26T00:44:36;100546.75;;;5.51;100.00
29121;BME280;16191;49.548;8.658;2023-04-26T00:47:05;100549.38;;;5.49;100.00
29121;BME280;16191;49.548;8.658;2023-04-26T00:49:32;100552.03;;;5.43;100.00
29121;BME280;16191;49.548;8.658;2023-04-26T00:51:58;100551.34;;;5.34;100.00
29121;BME280;16191;49.548;8.658;2023-04-26T00:54:25;100555.72;;;5.29;100.00
29121;BME280;16191;49.548;8.658;2023-04-26T00:56:53;100553.16;;;5.27;100.00
29121;BME280;16191;49.548;8.658;2023-04-26T00:59:21;100552.25;;;5.30;100.00
29121;BME280;16191;49.548;8.658;2023-04-26T01:01:48;100556.91;;;5.06;100.00
29121;BME280;16191;49.548;8.658;2023-04-26T01:04:14;100556.03;;;5.07;100.00
29121;BME280;16191;49.548;8.658;2023-04-26T01:06:42;100561.22;;;5.04;100.00
29121;BME280;16191;49.548;8.658;2023-04-26T01:09:08;100555.31;;;4.96;100.00
29121;BME280;16191;49.548;8.658;2023-04-26T01:11:37;100557.06;;;4.96;100.00
29121;BME280;16191;49.548;8.658;2023-04-26T01:14:04;100559.66;;;4.94;100.00
29121;BME280;16191;49.548;8.658;2023-04-26T01:16:31;100563.13;;;4.93;100.00
29121;BME280;16191;49.548;8.658;2023-04-26T01:19:06;100564.97;;;4.82;100.00
29121;BME280;16191;49.548;8.658;2023-04-26T01:21:33;100566.88;;;4.68;100.00
29121;BME280;16191;49.548;8.658;2023-04-26T01:24:00;100557.44;;;4.64;100.00
29121;BME280;16191;49.548;8.658;2023-04-26T01:26:26;100559.16;;;4.63;100.00
29121;BME280;16191;49.548;8.658;2023-04-26T01:28:53;100560.88;;;4.64;100.00
29121;BME280;16191;49.548;8.658;2023-04-26T01:31:20;100554.94;;;4.56;100.00
29121;BME280;16191;49.548;8.658;2023-04-26T01:33:46;100561.03;;;4.51;100.00
29121;BME280;16191;49.548;8.658;2023-04-26T01:36:13;100553.28;;;4.51;100.00
29121;BME280;16191;49.548;8.658;2023-04-26T01:38:40;100551.63;;;4.43;100.00
29121;BME280;16191;49.548;8.658;2023-04-26T01:41:06;100555.09;;;4.42;100.00
29121;BME280;16191;49.548;8.658;2023-04-26T01:43:53;100558.69;;;4.31;100.00
29121;BME280;16191;49.548;8.658;2023-04-26T01:46:40;100545.00;;;4.20;100.00
29121;BME280;16191;49.548;8.658;2023-04-26T01:49:27;100555.25;;;4.27;100.00
29121;BME280;16191;49.548;8.658;2023-04-26T01:52:14;100556.19;;;4.19;100.00
29121;BME280;16191;49.548;8.658;2023-04-26T01:55:04;100552.72;;;4.23;100.00
29121;BME280;16191;49.548;8.658;2023-04-26T01:57:51;100551.06;;;4.16;100.00
29121;BME280;16191;49.548;8.658;2023-04-26T02:00:18;100545.06;;;4.12;100.00
29121;BME280;16191;49.548;8.658;2023-04-26T02:02:47;100541.63;;;4.11;100.00
29121;BME280;16191;49.548;8.658;2023-04-26T02:05:14;100548.63;;;4.00;100.00
29121;BME280;16191;49.548;8.658;2023-04-26T02:07:41;100547.78;;;3.98;100.00
29121;BME280;16191;49.548;8.658;2023-04-26T02:10:07;100546.06;;;3.97;100.00
29121;BME280;16191;49.548;8.658;2023-04-26T02:12:34;100543.53;;;3.93;100.00
29121;BME280;16191;49.548;8.658;2023-04-26T02:15:01;100552.22;;;3.84;100.00
29121;BME280;16191;49.548;8.658;2023-04-26T02:17:27;100549.69;;;3.76;100.00
29121;BME280;16191;49.548;8.658;2023-04-26T02:19:54;100549.66;;;3.83;100.00
29121;BME280;16191;49.548;8.658;2023-04-26T02:22:22;100557.44;;;3.78;100.00
29121;BME280;16191;49.548;8.658;2023-04-26T02:24:50;100559.19;;;3.74;100.00
29121;BME280;16191;49.548;8.658;2023-04-26T02:27:18;100549.69;;;3.78;100.00
29121;BME280;16191;49.548;8.658;2023-04-26T02:29:45;100552.28;;;3.75;100.00
29121;BME280;16191;49.548;8.658;2023-04-26T02:32:12;100556.63;;;3.71;100.00
29121;BME280;16191;49.548;8.658;2023-04-26T02:34:39;100556.69;;;3.64;100.00
29121;BME280;16191;49.548;8.658;2023-04-26T02:37:06;100548.19;;;3.50;100.00
29121;BME280;16191;49.548;8.658;2023-04-26T02:39:32;100549.03;;;3.50;100.00
29121;BME280;16191;49.548;8.658;2023-04-26T02:41:59;100554.16;;;3.55;100.00
29121;BME280;16191;49.548;8.658;2023-04-26T02:44:29;100554.19;;;3.52;100.00
29121;BME280;16191;49.548;8.658;2023-04-26T02:46:59;100552.44;;;3.57;100.00
29121;BME280;16191;49.548;8.658;2023-04-26T02:49:26;100547.34;;;3.48;100.00
29121;BME280;16191;49.548;8.658;2023-04-26T02:51:52;100545.66;;;3.43;100.00
29121;BME280;16191;49.548;8.658;2023-04-26T02:54:19;100542.25;;;3.40;100.00
29121;BME280;16191;49.548;8.658;2023-04-26T02:56:46;100537.16;;;3.29;100.00
29121;BME280;16191;49.548;8.658;2023-04-26T02:59:12;100544.03;;;3.30;100.00
29121;BME280;16191;49.548;8.658;2023-04-26T03:01:39;100545.84;;;3.15;100.00
29121;BME280;16191;49.548;8.658;2023-04-26T03:04:06;100554.44;;;3.14;100.00
29121;BME280;16191;49.548;8.658;2023-04-26T03:06:34;100554.44;;;3.18;100.00
29121;BME280;16191;49.548;8.658;2023-04-26T03:09:01;100555.28;;;3.20;100.00
29121;BME280;16191;49.548;8.658;2023-04-26T03:11:27;100551.84;;;3.20;100.00
29121;BME280;16191;49.548;8.658;2023-04-26T03:13:55;100556.16;;;3.18;100.00
29121;BME280;16191;49.548;8.658;2023-04-26T03:16:22;100555.31;;;3.13;100.00
29121;BME280;16191;49.548;8.658;2023-04-26T03:18:49;100557.06;;;3.07;100.00
29121;BME280;16191;49.548;8.658;2023-04-26T03:21:16;100559.63;;;3.07;100.00
29121;BME280;16191;49.548;8.658;2023-04-26T03:23:42;100568.22;;;3.09;100.00
29121;BME280;16191;49.548;8.658;2023-04-26T03:26:09;100562.25;;;3.03;100.00
29121;BME280;16191;49.548;8.658;2023-04-26T03:28:36;100559.69;;;3.01;100.00
29121;BME280;16191;49.548;8.658;2023-04-26T03:31:03;100558.84;;;2.96;100.00
29121;BME280;16191;49.548;8.658;2023-04-26T03:33:30;100559.69;;;2.98;100.00
29121;BME280;16191;49.548;8.658;2023-04-26T03:35:57;100554.56;;;2.92;100.00
29121;BME280;16191;49.548;8.658;2023-04-26T03:38:24;100558.00;;;2.91;100.00
29121;BME280;16191;49.548;8.658;2023-04-26T03:40:51;100556.28;;;2.86;100.00
29121;BME280;16191;49.548;8.658;2023-04-26T03:43:17;100559.72;;;2.88;100.00
29121;BME280;16191;49.548;8.658;2023-04-26T03:45:46;100569.25;;;2.78;100.00
29121;BME280;16191;49.548;8.658;2023-04-26T03:48:14;100561.50;;;2.81;100.00
29121;BME280;16191;49.548;8.658;2023-04-26T03:50:41;100566.66;;;2.77;100.00
29121;BME280;16191;49.548;8.658;2023-04-26T03:53:10;100564.09;;;2.77;100.00
29121;BME280;16191;49.548;8.658;2023-04-26T03:55:37;100564.09;;;2.75;100.00
29121;BME280;16191;49.548;8.658;2023-04-26T03:58:04;100564.94;;;2.77;100.00
29121;BME280;16191;49.548;8.658;2023-04-26T04:00:37;100562.41;;;2.66;100.00
29121;BME280;16191;49.548;8.658;2023-04-26T04:03:05;100564.13;;;2.63;100.00
29121;BME280;16191;49.548;8.658;2023-04-26T04:05:32;100555.53;;;2.64;100.00
29121;BME280;16191;49.548;8.658;2023-04-26T04:07:59;100561.59;;;2.52;100.00
29121;BME280;16191;49.548;8.658;2023-04-26T04:10:28;100559.03;;;2.52;100.00
29121;BME280;16191;49.548;8.658;2023-04-26T04:12:54;100556.44;;;2.51;100.00
29121;BME280;16191;49.548;8.658;2023-04-26T04:15:21;100560.75;;;2.50;100.00
29121;BME280;16191;49.548;8.658;2023-04-26T04:17:48;100556.44;;;2.57;100.00
29121;BME280;16191;49.548;8.658;2023-04-26T04:20:15;100558.16;;;2.46;100.00
29121;BME280;16191;49.548;8.658;2023-04-26T04:22:42;100561.59;;;2.52;100.00
29121;BME280;16191;49.548;8.658;2023-04-26T04:25:08;100559.03;;;2.49;100.00
29121;BME280;16191;49.548;8.658;2023-04-26T04:27:39;100565.03;;;2.53;100.00
29121;BME280;16191;49.548;8.658;2023-04-26T04:30:08;100561.59;;;2.55;100.00
29121;BME280;16191;49.548;8.658;2023-04-26T04:32:35;100561.59;;;2.51;100.00
29121;BME280;16191;49.548;8.658;2023-04-26T04:35:02;100567.63;;;2.47;100.00
29121;BME280;16191;49.548;8.658;2023-04-26T04:37:29;100568.47;;;2.50;100.00
29121;BME280;16191;49.548;8.658;2023-04-26T04:39:59;100573.63;;;2.50;100.00
29121;BME280;16191;49.548;8.658;2023-04-26T04:42:26;100573.63;;;2.52;100.00
29121;BME280;16191;49.548;8.658;2023-04-26T04:44:55;100578.78;;;2.39;100.00
29121;BME280;16191;49.548;8.658;2023-04-26T04:47:23;100576.19;;;2.47;100.00
29121;BME280;16191;49.548;8.658;2023-04-26T04:49:50;100574.47;;;2.48;100.00
29121;BME280;16191;49.548;8.658;2023-04-26T04:52:20;100584.78;;;2.51;100.00
29121;BME280;16191;49.548;8.658;2023-04-26T04:54:47;100589.06;;;2.47;100.00
29121;BME280;16191;49.548;8.658;2023-04-26T04:57:14;100591.66;;;2.50;100.00
29121;BME280;16191;49.548;8.658;2023-04-26T04:59:45;100594.22;;;2.52;100.00
29121;BME280;16191;49.548;8.658;2023-04-26T05:02:12;100594.22;;;2.58;100.00
29121;BME280;16191;49.548;8.658;2023-04-26T05:04:39;100595.03;;;2.61;100.00
29121;BME280;16191;49.548;8.658;2023-04-26T05:07:06;100595.94;;;2.57;100.00
29121;BME280;16191;49.548;8.658;2023-04-26T05:09:34;100606.25;;;2.56;100.00
29121;BME280;16191;49.548;8.658;2023-04-26T05:12:00;100611.34;;;2.68;100.00
29121;BME280;16191;49.548;8.658;2023-04-26T05:14:29;100605.31;;;2.70;100.00
29121;BME280;16191;49.548;8.658;2023-04-26T05:16:55;100610.47;;;2.73;100.00
29121;BME280;16191;49.548;8.658;2023-04-26T05:19:23;100607.91;;;2.75;100.00
29121;BME280;16191;49.548;8.658;2023-04-26T05:21:51;100614.75;;;2.79;100.00
29121;BME280;16191;49.548;8.658;2023-04-26T05:24:18;100613.91;;;2.79;100.00
29121;BME280;16191;49.548;8.658;2023-04-26T05:26:45;100613.03;;;2.81;100.00
29121;BME280;16191;49.548;8.658;2023-04-26T05:29:18;100616.44;;;2.82;100.00
29121;BME280;16191;49.548;8.658;2023-04-26T05:31:44;100618.16;;;2.83;100.00
29121;BME280;16191;49.548;8.658;2023-04-26T05:34:31;100622.41;;;2.97;100.00
29121;BME280;16191;49.548;8.658;2023-04-26T05:36:58;100623.22;;;3.13;100.00
29121;BME280;16191;49.548;8.658;2023-04-26T05:39:25;100624.06;;;3.10;100.00
29121;BME280;16191;49.548;8.658;2023-04-26T05:41:52;100614.56;;;3.22;100.00
29121;BME280;16191;49.548;8.658;2023-04-26T05:44:19;100619.69;;;3.29;100.00
29121;BME280;16191;49.548;8.658;2023-04-26T05:46:45;100621.38;;;3.36;100.00
29121;BME280;16191;49.548;8.658;2023-04-26T05:49:12;100623.94;;;3.36;100.00
29121;BME280;16191;49.548;8.658;2023-04-26T05:51:39;100621.34;;;3.44;100.00
29121;BME280;16191;49.548;8.658;2023-04-26T05:54:06;100617.81;;;3.56;100.00
29121;BME280;16191;49.548;8.658;2023-04-26T05:56:32;100616.03;;;3.64;100.00
29121;BME280;16191;49.548;8.658;2023-04-26T05:59:00;100618.63;;;3.67;100.00
29121;BME280;16191;49.548;8.658;2023-04-26T06:01:26;100626.25;;;3.79;100.00
29121;BME280;16191;49.548;8.658;2023-04-26T06:03:53;100626.25;;;3.79;100.00
29121;BME280;16191;49.548;8.658;2023-04-26T06:06:29;100623.56;;;3.91;100.00
29121;BME280;16191;49.548;8.658;2023-04-26T06:08:56;100631.31;;;3.91;100.00
29121;BME280;16191;49.548;8.658;2023-04-26T06:11:22;100634.72;;;3.99;100.00
29121;BME280;16191;49.548;8.658;2023-04-26T06:13:49;100640.66;;;4.09;100.00
29121;BME280;16191;49.548;8.658;2023-04-26T06:16:16;100644.09;;;4.11;100.00
29121;BME280;16191;49.548;8.658;2023-04-26T06:18:43;100646.53;;;4.26;100.00
29121;BME280;16191;49.548;8.658;2023-04-26T06:21:10;100643.84;;;4.37;100.00
29121;BME280;16191;49.548;8.658;2023-04-26T06:23:37;100643.66;;;4.57;100.00
29121;BME280;16191;49.548;8.658;2023-04-26T06:26:03;100644.50;;;4.59;100.00
29121;BME280;16191;49.548;8.658;2023-04-26T06:28:30;100647.78;;;4.76;100.00
29121;BME280;16191;49.548;8.658;2023-04-26T06:30:56;100648.72;;;4.69;100.00
29121;BME280;16191;49.548;8.658;2023-04-26T06:33:24;100648.53;;;4.86;100.00
29121;BME280;16191;49.548;8.658;2023-04-26T06:35:50;100653.56;;;4.98;100.00
29121;BME280;16191;49.548;8.658;2023-04-26T06:38:17;100654.31;;;5.06;100.00
29121;BME280;16191;49.548;8.658;2023-04-26T06:40:44;100654.25;;;5.12;100.00
29121;BME280;16191;49.548;8.658;2023-04-26T06:43:11;100657.56;;;5.23;100.00
29121;BME280;16191;49.548;8.658;2023-04-26T06:46:10;100648.00;;;5.28;100.00
29121;BME280;16191;49.548;8.658;2023-04-26T06:48:38;100647.91;;;5.37;100.00
29121;BME280;16191;49.548;8.658;2023-04-26T06:51:05;100646.06;;;5.45;100.00
29121;BME280;16191;49.548;8.658;2023-04-26T06:53:32;100634.81;;;5.46;100.00
29121;BME280;16191;49.548;8.658;2023-04-26T06:55:59;100640.78;;;5.53;100.00
29121;BME280;16191;49.548;8.658;2023-04-26T06:58:25;100635.59;;;5.55;100.00
29121;BME280;16191;49.548;8.658;2023-04-26T07:00:52;100633.69;;;5.66;100.00
29121;BME280;16191;49.548;8.658;2023-04-26T07:03:18;100624.03;;;5.77;100.00
29121;BME280;16191;49.548;8.658;2023-04-26T07:05:45;100630.47;;;6.08;100.00
29121;BME280;16191;49.548;8.658;2023-04-26T07:08:12;100627.88;;;6.08;100.00
29121;BME280;16191;49.548;8.658;2023-04-26T07:10:38;100636.63;;;6.01;100.00
29121;BME280;16191;49.548;8.658;2023-04-26T07:13:05;100634.03;;;6.03;100.00
29121;BME280;16191;49.548;8.658;2023-04-26T07:15:34;100628.34;;;6.32;100.00
29121;BME280;16191;49.548;8.658;2023-04-26T07:18:01;100628.09;;;6.47;100.00
29121;BME280;16191;49.548;8.658;2023-04-26T07:20:28;100625.34;;;6.53;100.00
29121;BME280;16191;49.548;8.658;2023-04-26T07:22:55;100624.31;;;6.63;100.00
29121;BME280;16191;49.548;8.658;2023-04-26T07:25:22;100628.66;;;6.63;100.00
29121;BME280;16191;49.548;8.658;2023-04-26T07:27:48;100634.59;;;6.69;100.00
29121;BME280;16191;49.548;8.658;2023-04-26T07:30:16;100630.97;;;6.76;100.00
29121;BME280;16191;49.548;8.658;2023-04-26T07:32:43;100632.06;;;7.09;100.00
29121;BME280;16191;49.548;8.658;2023-04-26T07:35:10;100632.66;;;7.22;100.00
29121;BME280;16191;49.548;8.658;2023-04-26T07:37:42;100627.00;;;7.43;100.00
29121;BME280;16191;49.548;8.658;2023-04-26T07:40:10;100632.06;;;7.49;100.00
29121;BME280;16191;49.548;8.658;2023-04-26T07:42:37;100623.72;;;7.74;100.00
29121;BME280;16191;49.548;8.658;2023-04-26T07:45:04;100618.50;;;7.75;100.00
29121;BME280;16191;49.548;8.658;2023-04-26T07:47:30;100624.91;;;7.98;100.00
29121;BME280;16191;49.548;8.658;2023-04-26T07:49:57;100616.94;;;8.04;99.51
29121;BME280;16191;49.548;8.658;2023-04-26T07:52:24;100626.56;;;8.36;97.98
29121;BME280;16191;49.548;8.658;2023-04-26T07:54:50;100623.47;;;8.54;90.81
29121;BME280;16191;49.548;8.658;2023-04-26T07:57:17;100627.88;;;8.52;90.33
29121;BME280;16191;49.548;8.658;2023-04-26T07:59:43;100634.31;;;8.70;91.77
29121;BME280;16191;49.548;8.658;2023-04-26T08:02:10;100631.06;;;8.63;89.54
29121;BME280;16191;49.548;8.658;2023-04-26T08:04:36;100630.72;;;8.43;88.81
29121;BME280;16191;49.548;8.658;2023-04-26T08:07:03;100635.22;;;8.69;90.79
29121;BME280;16191;49.548;8.658;2023-04-26T08:09:30;100631.31;;;8.52;95.55
29121;BME280;16191;49.548;8.658;2023-04-26T08:11:56;100633.63;;;8.96;93.83
29121;BME280;16191;49.548;8.658;2023-04-26T08:14:23;100629.56;;;9.46;91.97
29121;BME280;16191;49.548;8.658;2023-04-26T08:16:50;100619.31;;;9.68;89.40
29121;BME280;16191;49.548;8.658;2023-04-26T08:19:16;100632.22;;;9.13;90.24
29121;BME280;16191;49.548;8.658;2023-04-26T08:21:43;100635.06;;;9.06;96.66
29121;BME280;16191;49.548;8.658;2023-04-26T08:24:09;100628.66;;;9.17;94.00
29121;BME280;16191;49.548;8.658;2023-04-26T08:26:36;100633.13;;;9.42;90.62
29121;BME280;16191;49.548;8.658;2023-04-26T08:29:02;100636.16;;;9.56;85.28
29121;BME280;16191;49.548;8.658;2023-04-26T08:31:29;100630.41;;;9.46;82.76
29121;BME280;16191;49.548;8.658;2023-04-26T08:33:56;100624.53;;;9.68;81.60
29121;BME280;16191;49.548;8.658;2023-04-26T08:36:22;100623.69;;;9.67;77.40
29121;BME280;16191;49.548;8.658;2023-04-26T08:38:49;100630.59;;;9.40;76.57
29121;BME280;16191;49.548;8.658;2023-04-26T08:41:21;100624.44;;;9.43;74.76
29121;BME280;16191;49.548;8.658;2023-04-26T08:43:48;100625.53;;;9.91;70.73
29121;BME280;16191;49.548;8.658;2023-04-26T08:46:18;100616.94;;;9.88;67.80
29121;BME280;16191;49.548;8.658;2023-04-26T08:48:48;100622.38;;;10.35;64.26
29121;BME280;16191;49.548;8.658;2023-04-26T08:51:20;100614.22;;;10.69;63.53
29121;BME280;16191;49.548;8.658;2023-04-26T08:53:48;100608.44;;;10.60;60.80
29121;BME280;16191;49.548;8.658;2023-04-26T08:56:21;100605.13;;;11.04;59.98
29121;BME280;16191;49.548;8.658;2023-04-26T08:58:49;100600.41;;;11.37;52.64
29121;BME280;16191;49.548;8.658;2023-04-26T09:01:18;100604.06;;;10.61;51.75
29121;BME280;16191;49.548;8.658;2023-04-26T09:03:46;100607.00;;;10.52;49.60
29121;BME280;16191;49.548;8.658;2023-04-26T09:06:13;100602.66;;;11.46;49.05
29121;BME280;16191;49.548;8.658;2023-04-26T09:08:41;100596.59;;;11.45;46.78
29121;BME280;16191;49.548;8.658;2023-04-26T09:11:08;100595.72;;;11.90;47.76
29121;BME280;16191;49.548;8.658;2023-04-26T09:13:34;100598.81;;;11.32;48.47
29121;BME280;16191;49.548;8.658;2023-04-26T09:16:01;100594.16;;;11.62;46.63
29121;BME280;16191;49.548;8.658;2023-04-26T09:18:30;100588.94;;;12.06;44.92
29121;BME280;16191;49.548;8.658;2023-04-26T09:21:04;100592.41;;;11.85;45.11
29121;BME280;16191;49.548;8.658;2023-04-26T09:23:31;100591.69;;;12.44;45.53
29121;BME280;16191;49.548;8.658;2023-04-26T09:26:17;100587.50;;;12.19;46.05
29121;BME280;16191;49.548;8.658;2023-04-26T09:28:44;100586.34;;;12.86;45.52
29121;BME280;16191;49.548;8.658;2023-04-26T09:31:34;100578.16;;;12.93;45.75
29121;BME280;16191;49.548;8.658;2023-04-26T09:34:02;100596.66;;;11.44;45.57
29121;BME280;16191;49.548;8.658;2023-04-26T09:36:29;100581.81;;;12.10;45.95
29121;BME280;16191;49.548;8.658;2023-04-26T09:38:55;100585.34;;;12.88;45.90
29121;BME280;16191;49.548;8.658;2023-04-26T09:41:22;100588.31;;;12.99;44.88
29121;BME280;16191;49.548;8.658;2023-04-26T09:43:51;100590.38;;;12.54;46.05
29121;BME280;16191;49.548;8.658;2023-04-26T09:46:21;100588.31;;;12.60;45.51
29121;BME280;16191;49.548;8.658;2023-04-26T09:49:00;100593.28;;;13.05;46.15
29121;BME280;16191;49.548;8.658;2023-04-26T09:51:27;100592.78;;;13.36;46.22
29121;BME280;16191;49.548;8.658;2023-04-26T09:53:54;100579.94;;;14.20;45.68
29121;BME280;16191;49.548;8.658;2023-04-26T09:56:22;100584.78;;;13.40;44.36
29121;BME280;16191;49.548;8.658;2023-04-26T10:01:19;100583.44;;;14.03;43.26
29121;BME280;16191;49.548;8.658;2023-04-26T10:03:45;100575.94;;;14.13;43.62
29121;BME280;16191;49.548;8.658;2023-04-26T10:06:13;100585.16;;;12.93;44.30
29121;BME280;16191;49.548;8.658;2023-04-26T10:08:41;100582.00;;;12.85;44.57
29121;BME280;16191;49.548;8.658;2023-04-26T10:11:08;100571.91;;;12.96;44.44
29121;BME280;16191;49.548;8.658;2023-04-26T10:13:39;100563.38;;;13.30;44.96
29121;BME280;16191;49.548;8.658;2023-04-26T10:16:07;100569.28;;;12.77;45.88
29121;BME280;16191;49.548;8.658;2023-04-26T10:18:36;100571.81;;;13.36;45.55
29121;BME280;16191;49.548;8.658;2023-04-26T10:21:11;100576.63;;;12.88;45.60
29121;BME280;16191;49.548;8.658;2023-04-26T10:23:40;100577.28;;;13.12;45.89
29121;BME280;16191;49.548;8.658;2023-04-26T10:29:18;100560.09;;;14.31;44.51
29121;BME280;16191;49.548;8.658;2023-04-26T10:34:31;100550.91;;;14.40;43.56
29121;BME280;16191;49.548;8.658;2023-04-26T10:37:14;100563.19;;;13.52;44.49
29121;BME280;16191;49.548;8.658;2023-04-26T10:39:43;100558.41;;;13.79;44.91
29121;BME280;16191;49.548;8.658;2023-04-26T10:42:17;100562.81;;;13.95;44.63
29121;BME280;16191;49.548;8.658;2023-04-26T10:44:58;100549.63;;;14.14;44.41
29121;BME280;16191;49.548;8.658;2023-04-26T10:47:33;100551.75;;;14.58;43.62
29121;BME280;16191;49.548;8.658;2023-04-26T10:50:08;100550.31;;;13.83;44.60
29121;BME280;16191;49.548;8.658;2023-04-26T10:52:37;100544.53;;;13.41;44.45
29121;BME280;16191;49.548;8.658;2023-04-26T10:55:04;100554.25;;;12.81;44.15
29121;BME280;16191;49.548;8.658;2023-04-26T10:57:49;100540.34;;;13.36;43.96
29121;BME280;16191;49.548;8.658;2023-04-26T11:00:34;100539.31;;;13.58;45.02
29121;BME280;16191;49.548;8.658;2023-04-26T11:03:03;100536.41;;;13.81;43.45
29121;BME280;16191;49.548;8.658;2023-04-26T11:10:39;100525.84;;;13.83;42.79
29121;BME280;16191;49.548;8.658;2023-04-26T11:13:07;100516.22;;;14.51;41.25
29121;BME280;16191;49.548;8.658;2023-04-26T11:15:34;100515.69;;;14.77;41.67
29121;BME280;16191;49.548;8.658;2023-04-26T11:18:02;100506.69;;;15.14;42.07
29121;BME280;16191;49.548;8.658;2023-04-26T11:20:31;100504.53;;;15.05;41.46
29121;BME280;16191;49.548;8.658;2023-04-26T11:22:59;100503.97;;;15.77;41.83
29121;BME280;16191;49.548;8.658;2023-04-26T11:25:29;100503.59;;;16.27;40.50
29121;BME280;16191;49.548;8.658;2023-04-26T11:28:02;100507.97;;;14.74;41.05
29121;BME280;16191;49.548;8.658;2023-04-26T11:30:30;100509.19;;;14.68;41.31
29121;BME280;16191;49.548;8.658;2023-04-26T11:33:01;100504.94;;;14.66;40.29
29121;BME280;16191;49.548;8.658;2023-04-26T11:35:37;100500.19;;;15.51;40.45
29121;BME280;16191;49.548;8.658;2023-04-26T11:38:04;100497.22;;;14.63;43.04
29121;BME280;16191;49.548;8.658;2023-04-26T11:40:32;100492.31;;;14.72;42.92
29121;BME280;16191;49.548;8.658;2023-04-26T11:43:00;100488.31;;;14.50;41.58
29121;BME280;16191;49.548;8.658;2023-04-26T11:45:27;100490.03;;;14.66;41.53
29121;BME280;16191;49.548;8.658;2023-04-26T11:47:54;100481.06;;;14.86;42.55
29121;BME280;16191;49.548;8.658;2023-04-26T11:50:21;100492.19;;;14.58;40.84
29121;BME280;16191;49.548;8.658;2023-04-26T11:52:56;100490.97;;;14.97;40.08
29121;BME280;16191;49.548;8.658;2023-04-26T11:55:28;100489.66;;;15.51;39.73
29121;BME280;16191;49.548;8.658;2023-04-26T11:57:59;100484.09;;;15.26;39.77
29121;BME280;16191;49.548;8.658;2023-04-26T12:00:26;100486.94;;;13.91;40.94
29121;BME280;16191;49.548;8.658;2023-04-26T12:02:53;100487.13;;;13.17;42.72
29121;BME280;16191;49.548;8.658;2023-04-26T12:05:26;100484.91;;;14.30;40.24
29121;BME280;16191;49.548;8.658;2023-04-26T12:07:55;100472.94;;;14.91;39.17
29121;BME280;16191;49.548;8.658;2023-04-26T12:10:27;100481.97;;;15.17;39.70
29121;BME280;16191;49.548;8.658;2023-04-26T12:12:55;100473.25;;;16.36;37.79
29121;BME280;16191;49.548;8.658;2023-04-26T12:15:24;100478.31;;;16.39;38.19
29121;BME280;16191;49.548;8.658;2023-04-26T12:20:29;100473.44;;;17.70;37.20
29121;BME280;16191;49.548;8.658;2023-04-26T12:25:27;100472.19;;;16.24;35.19
29121;BME280;16191;49.548;8.658;2023-04-26T12:27:54;100464.25;;;16.95;34.66
29121;BME280;16191;49.548;8.658;2023-04-26T12:30:21;100463.72;;;17.17;33.31
29121;BME280;16191;49.548;8.658;2023-04-26T12:33:00;100466.63;;;17.00;34.02
29121;BME280;16191;49.548;8.658;2023-04-26T12:35:42;100467.38;;;17.02;36.11
29121;BME280;16191;49.548;8.658;2023-04-26T12:38:08;100463.19;;;16.85;35.50
29121;BME280;16191;49.548;8.658;2023-04-26T12:40:35;100463.06;;;17.28;35.40
29121;BME280;16191;49.548;8.658;2023-04-26T12:43:02;100468.69;;;16.95;35.02
29121;BME280;16191;49.548;8.658;2023-04-26T12:45:28;100481.31;;;16.47;34.56
29121;BME280;16191;49.548;8.658;2023-04-26T12:47:55;100471.00;;;17.13;34.03
29121;BME280;16191;49.548;8.658;2023-04-26T12:50:22;100476.25;;;15.71;33.98
29121;BME280;16191;49.548;8.658;2023-04-26T12:52:48;100474.66;;;16.56;34.34
29121;BME280;16191;49.548;8.658;2023-04-26T12:55:15;100481.41;;;15.73;34.13
29121;BME280;16191;49.548;8.658;2023-04-26T12:57:43;100474.75;;;16.40;34.43
29121;BME280;16191;49.548;8.658;2023-04-26T13:00:11;100465.06;;;17.37;33.60
29121;BME280;16191;49.548;8.658;2023-04-26T13:02:39;100470.13;;;14.78;36.04
29121;BME280;16191;49.548;8.658;2023-04-26T13:05:06;100470.09;;;14.62;37.04
29121;BME280;16191;49.548;8.658;2023-04-26T13:07:35;100458.00;;;15.07;36.22
29121;BME280;16191;49.548;8.658;2023-04-26T13:10:02;100477.88;;;14.31;37.02
29121;BME280;16191;49.548;8.658;2023-04-26T13:12:29;100473.84;;;15.05;37.41
29121;BME280;16191;49.548;8.658;2023-04-26T13:14:56;100472.81;;;14.28;37.36